sensor_id;sensor_type;location;lat;lon;timestamp;temperature;humidity
27795;DHT22;15176;50.844;4.412;2023-05-24T00:02:09;14.50;99.90
27795;DHT22;15176;50.844;4.412;2023-05-24T00:04:40;14.40;99.90
27795;DHT22;15176;50.844;4.412;2023-05-24T00:07:06;14.50;99.90
27795;DHT22;15176;50.844;4.412;2023-05-24T00:09:32;14.50;99.90
27795;DHT22;15176;50.844;4.412;2023-05-24T00:11:57;14.70;99.90
27795;DHT22;15176;50.844;4.412;2023-05-24T00:14:24;14.90;99.90
27795;DHT22;15176;50.844;4.412;2023-05-24T00:16:50;14.70;99.90
27795;DHT22;15176;50.844;4.412;2023-05-24T00:19:15;14.50;99.90
27795;DHT22;15176;50.844;4.412;2023-05-24T00:21:44;14.30;99.90
27795;DHT22;15176;50.844;4.412;2023-05-24T00:24:10;14.20;99.90
27795;DHT22;15176;50.844;4.412;2023-05-24T00:26:36;14.10;99.90
27795;DHT22;15176;50.844;4.412;2023-05-24T00:29:02;14.20;99.90
27795;DHT22;15176;50.844;4.412;2023-05-24T00:31:29;14.20;99.90
27795;DHT22;15176;50.844;4.412;2023-05-24T00:33:55;14.20;99.90
27795;DHT22;15176;50.844;4.412;2023-05-24T00:36:20;14.20;99.90
27795;DHT22;15176;50.844;4.412;2023-05-24T00:38:46;14.40;99.90
27795;DHT22;15176;50.844;4.412;2023-05-24T00:41:12;14.10;99.90
27795;DHT22;15176;50.844;4.412;2023-05-24T00:43:37;14.20;99.90
27795;DHT22;15176;50.844;4.412;2023-05-24T00:48:42;14.10;99.90
27795;DHT22;15176;50.844;4.412;2023-05-24T00:51:08;14.20;99.90
27795;DHT22;15176;50.844;4.412;2023-05-24T00:53:34;14.30;99.90
27795;DHT22;15176;50.844;4.412;2023-05-24T00:56:02;14.30;99.90
27795;DHT22;15176;50.844;4.412;2023-05-24T00:58:31;14.40;99.90
27795;DHT22;15176;50.844;4.412;2023-05-24T01:01:01;14.10;99.90
27795;DHT22;15176;50.844;4.412;2023-05-24T01:03:28;14.10;99.90
27795;DHT22;15176;50.844;4.412;2023-05-24T01:05:58;14.30;99.90
27795;DHT22;15176;50.844;4.412;2023-05-24T01:08:31;14.50;99.90
27795;DHT22;15176;50.844;4.412;2023-05-24T01:13:39;14.10;99.90
27795;DHT22;15176;50.844;4.412;2023-05-24T01:16:25;14.20;99.90
27795;DHT22;15176;50.844;4.412;2023-05-24T01:18:56;14.20;99.90
27795;DHT22;15176;50.844;4.412;2023-05-24T01:25:03;13.90;99.90
27795;DHT22;15176;50.844;4.412;2023-05-24T01:27:30;14.20;99.90
27795;DHT22;15176;50.844;4.412;2023-05-24T01:29:58;14.40;99.90
27795;DHT22;15176;50.844;4.412;2023-05-24T01:32:24;14.40;99.90
27795;DHT22;15176;50.844;4.412;2023-05-24T01:34:51;14.50;99.90
27795;DHT22;15176;50.844;4.412;2023-05-24T01:37:16;14.10;99.90
27795;DHT22;15176;50.844;4.412;2023-05-24T01:39:42;14.00;99.90
27795;DHT22;15176;50.844;4.412;2023-05-24T01:42:55;14.00;99.90
27795;DHT22;15176;50.844;4.412;2023-05-24T01:50:35;14.30;99.90
27795;DHT22;15176;50.844;4.412;2023-05-24T01:53:08;14.30;99.90
27795;DHT22;15176;50.844;4.412;2023-05-24T01:55:38;14.30;99.90
27795;DHT22;15176;50.844;4.412;2023-05-24T01:58:05;14.30;99.90
27795;DHT22;15176;50.844;4.412;2023-05-24T02:00:32;14.40;99.90
27795;DHT22;15176;50.844;4.412;2023-05-24T02:02:58;14.60;99.90
27795;DHT22;15176;50.844;4.412;2023-05-24T02:05:26;14.50;99.90
27795;DHT22;15176;50.844;4.412;2023-05-24T02:07:52;14.50;99.90
27795;DHT22;15176;50.844;4.412;2023-05-24T02:10:17;14.30;99.90
27795;DHT22;15176;50.844;4.412;2023-05-24T02:12:43;14.50;99.90
27795;DHT22;15176;50.844;4.412;2023-05-24T02:15:10;14.50;99.90
27795;DHT22;15176;50.844;4.412;2023-05-24T02:17:39;14.50;99.90
27795;DHT22;15176;50.844;4.412;2023-05-24T02:20:05;14.70;99.90
27795;DHT22;15176;50.844;4.412;2023-05-24T02:22:31;14.60;99.90
27795;DHT22;15176;50.844;4.412;2023-05-24T02:24:57;14.60;99.90
27795;DHT22;15176;50.844;4.412;2023-05-24T02:27:22;14.70;99.90
27795;DHT22;15176;50.844;4.412;2023-05-24T02:29:48;14.70;99.90
27795;DHT22;15176;50.844;4.412;2023-05-24T02:32:13;14.70;99.90
27795;DHT22;15176;50.844;4.412;2023-05-24T02:34:39;14.70;99.90
27795;DHT22;15176;50.844;4.412;2023-05-24T02:37:05;14.80;99.90
27795;DHT22;15176;50.844;4.412;2023-05-24T02:39:30;14.90;99.90
27795;DHT22;15176;50.844;4.412;2023-05-24T02:41:56;14.90;99.90
27795;DHT22;15176;50.844;4.412;2023-05-24T02:44:22;14.80;99.90
27795;DHT22;15176;50.844;4.412;2023-05-24T02:46:48;14.80;99.90
27795;DHT22;15176;50.844;4.412;2023-05-24T02:49:15;14.70;99.90
27795;DHT22;15176;50.844;4.412;2023-05-24T02:51:40;14.70;99.90
27795;DHT22;15176;50.844;4.412;2023-05-24T02:54:06;14.70;99.90
27795;DHT22;15176;50.844;4.412;2023-05-24T02:56:32;14.70;99.90
27795;DHT22;15176;50.844;4.412;2023-05-24T02:58:58;14.80;99.90
27795;DHT22;15176;50.844;4.412;2023-05-24T03:01:25;14.90;99.90
27795;DHT22;15176;50.844;4.412;2023-05-24T03:03:51;15.10;99.90
27795;DHT22;15176;50.844;4.412;2023-05-24T03:06:17;15.10;99.90
27795;DHT22;15176;50.844;4.412;2023-05-24T03:08:42;15.10;99.90
27795;DHT22;15176;50.844;4.412;2023-05-24T03:11:08;14.90;99.90
27795;DHT22;15176;50.844;4.412;2023-05-24T03:13:33;14.80;99.90
27795;DHT22;15176;50.844;4.412;2023-05-24T03:15:59;15.10;99.90
27795;DHT22;15176;50.844;4.412;2023-05-24T03:18:25;15.10;99.90
27795;DHT22;15176;50.844;4.412;2023-05-24T03:20:50;15.20;99.90
27795;DHT22;15176;50.844;4.412;2023-05-24T03:23:16;15.30;99.90
27795;DHT22;15176;50.844;4.412;2023-05-24T03:25:42;15.20;99.90
27795;DHT22;15176;50.844;4.412;2023-05-24T03:28:08;15.20;99.90
27795;DHT22;15176;50.844;4.412;2023-05-24T03:30:34;15.30;99.90
27795;DHT22;15176;50.844;4.412;2023-05-24T03:32:59;15.20;99.90
27795;DHT22;15176;50.844;4.412;2023-05-24T03:35:25;15.20;99.90
27795;DHT22;15176;50.844;4.412;2023-05-24T03:37:51;15.30;99.90
27795;DHT22;15176;50.844;4.412;2023-05-24T03:40:17;15.20;99.90
27795;DHT22;15176;50.844;4.412;2023-05-24T03:42:43;15.00;99.90
27795;DHT22;15176;50.844;4.412;2023-05-24T03:45:09;15.00;99.90
27795;DHT22;15176;50.844;4.412;2023-05-24T03:47:35;15.00;99.90
27795;DHT22;15176;50.844;4.412;2023-05-24T03:50:00;15.10;99.90
27795;DHT22;15176;50.844;4.412;2023-05-24T03:52:26;15.10;99.90
27795;DHT22;15176;50.844;4.412;2023-05-24T03:54:52;15.00;99.90
27795;DHT22;15176;50.844;4.412;2023-05-24T03:57:17;14.90;99.90
27795;DHT22;15176;50.844;4.412;2023-05-24T03:59:43;14.90;99.90
27795;DHT22;15176;50.844;4.412;2023-05-24T04:02:09;14.70;99.90
27795;DHT22;15176;50.844;4.412;2023-05-24T04:04:35;14.50;99.90
27795;DHT22;15176;50.844;4.412;2023-05-24T04:07:01;14.50;99.90
27795;DHT22;15176;50.844;4.412;2023-05-24T04:09:27;14.40;99.90
27795;DHT22;15176;50.844;4.412;2023-05-24T04:11:53;14.40;99.90
27795;DHT22;15176;50.844;4.412;2023-05-24T04:14:18;14.40;99.90
27795;DHT22;15176;50.844;4.412;2023-05-24T04:16:44;14.30;99.90
27795;DHT22;15176;50.844;4.412;2023-05-24T04:19:11;14.50;99.90
27795;DHT22;15176;50.844;4.412;2023-05-24T04:21:37;14.50;99.90
27795;DHT22;15176;50.844;4.412;2023-05-24T04:24:04;14.60;99.90
27795;DHT22;15176;50.844;4.412;2023-05-24T04:26:30;14.50;99.90
27795;DHT22;15176;50.844;4.412;2023-05-24T04:28:56;14.50;99.90
27795;DHT22;15176;50.844;4.412;2023-05-24T04:31:22;14.50;99.90
27795;DHT22;15176;50.844;4.412;2023-05-24T04:33:48;14.40;99.90
27795;DHT22;15176;50.844;4.412;2023-05-24T04:36:14;14.70;99.90
27795;DHT22;15176;50.844;4.412;2023-05-24T04:38:42;14.90;99.90
27795;DHT22;15176;50.844;4.412;2023-05-24T04:41:10;14.90;99.90
27795;DHT22;15176;50.844;4.412;2023-05-24T04:43:36;14.90;99.90
27795;DHT22;15176;50.844;4.412;2023-05-24T04:46:02;14.70;99.90
27795;DHT22;15176;50.844;4.412;2023-05-24T04:48:28;14.60;99.90
27795;DHT22;15176;50.844;4.412;2023-05-24T04:50:56;14.60;99.90
27795;DHT22;15176;50.844;4.412;2023-05-24T04:53:23;14.60;99.90
27795;DHT22;15176;50.844;4.412;2023-05-24T04:55:49;14.40;99.90
27795;DHT22;15176;50.844;4.412;2023-05-24T04:58:16;14.20;99.90
27795;DHT22;15176;50.844;4.412;2023-05-24T05:00:43;14.10;99.90
27795;DHT22;15176;50.844;4.412;2023-05-24T05:03:09;14.30;99.90
27795;DHT22;15176;50.844;4.412;2023-05-24T05:05:35;14.60;99.90
27795;DHT22;15176;50.844;4.412;2023-05-24T05:08:01;14.90;99.90
27795;DHT22;15176;50.844;4.412;2023-05-24T05:10:28;15.10;99.90
27795;DHT22;15176;50.844;4.412;2023-05-24T05:12:54;15.40;99.90
27795;DHT22;15176;50.844;4.412;2023-05-24T05:15:23;15.50;99.90
27795;DHT22;15176;50.844;4.412;2023-05-24T05:17:50;15.90;99.90
27795;DHT22;15176;50.844;4.412;2023-05-24T05:20:15;16.10;99.90
27795;DHT22;15176;50.844;4.412;2023-05-24T05:22:45;16.10;99.90
27795;DHT22;15176;50.844;4.412;2023-05-24T05:25:11;16.00;99.90
27795;DHT22;15176;50.844;4.412;2023-05-24T05:27:37;15.70;99.90
27795;DHT22;15176;50.844;4.412;2023-05-24T05:30:02;15.70;99.90
27795;DHT22;15176;50.844;4.412;2023-05-24T05:32:28;15.90;99.90
27795;DHT22;15176;50.844;4.412;2023-05-24T05:34:54;15.90;99.90
27795;DHT22;15176;50.844;4.412;2023-05-24T05:37:19;15.90;99.90
27795;DHT22;15176;50.844;4.412;2023-05-24T05:39:45;15.50;99.90
27795;DHT22;15176;50.844;4.412;2023-05-24T05:42:11;15.10;99.90
27795;DHT22;15176;50.844;4.412;2023-05-24T05:44:36;15.00;99.90
27795;DHT22;15176;50.844;4.412;2023-05-24T05:47:03;15.10;99.90
27795;DHT22;15176;50.844;4.412;2023-05-24T05:49:31;15.00;99.90
27795;DHT22;15176;50.844;4.412;2023-05-24T05:52:03;14.90;99.90
27795;DHT22;15176;50.844;4.412;2023-05-24T05:54:28;14.50;99.90
27795;DHT22;15176;50.844;4.412;2023-05-24T05:56:56;14.50;99.90
27795;DHT22;15176;50.844;4.412;2023-05-24T05:59:21;14.40;99.90
27795;DHT22;15176;50.844;4.412;2023-05-24T06:01:48;14.50;99.90
27795;DHT22;15176;50.844;4.412;2023-05-24T06:04:15;14.30;99.90
27795;DHT22;15176;50.844;4.412;2023-05-24T06:06:40;14.50;99.90
27795;DHT22;15176;50.844;4.412;2023-05-24T06:09:06;14.70;99.90
27795;DHT22;15176;50.844;4.412;2023-05-24T06:11:33;14.50;99.90
27795;DHT22;15176;50.844;4.412;2023-05-24T06:13:58;14.80;99.90
27795;DHT22;15176;50.844;4.412;2023-05-24T06:16:24;14.90;99.90
27795;DHT22;15176;50.844;4.412;2023-05-24T06:18:50;15.00;99.90
27795;DHT22;15176;50.844;4.412;2023-05-24T06:21:19;14.90;99.90
27795;DHT22;15176;50.844;4.412;2023-05-24T06:23:44;14.90;99.90
27795;DHT22;15176;50.844;4.412;2023-05-24T06:26:10;14.70;99.90
27795;DHT22;15176;50.844;4.412;2023-05-24T06:28:36;14.80;99.90
27795;DHT22;15176;50.844;4.412;2023-05-24T06:31:03;15.10;99.90
27795;DHT22;15176;50.844;4.412;2023-05-24T06:33:29;15.30;99.90
27795;DHT22;15176;50.844;4.412;2023-05-24T06:35:56;15.40;99.90
27795;DHT22;15176;50.844;4.412;2023-05-24T06:38:21;15.30;99.90
27795;DHT22;15176;50.844;4.412;2023-05-24T06:40:47;15.40;99.90
27795;DHT22;15176;50.844;4.412;2023-05-24T06:43:13;15.70;99.90
27795;DHT22;15176;50.844;4.412;2023-05-24T06:45:39;15.90;99.90
27795;DHT22;15176;50.844;4.412;2023-05-24T06:48:05;15.80;99.90
27795;DHT22;15176;50.844;4.412;2023-05-24T06:50:31;16.00;99.90
27795;DHT22;15176;50.844;4.412;2023-05-24T06:52:57;16.10;99.90
27795;DHT22;15176;50.844;4.412;2023-05-24T06:55:23;16.00;99.90
27795;DHT22;15176;50.844;4.412;2023-05-24T06:57:49;16.10;99.90
27795;DHT22;15176;50.844;4.412;2023-05-24T07:00:15;16.10;99.90
27795;DHT22;15176;50.844;4.412;2023-05-24T07:02:42;16.40;99.90
27795;DHT22;15176;50.844;4.412;2023-05-24T07:05:08;16.70;99.90
27795;DHT22;15176;50.844;4.412;2023-05-24T07:07:40;16.80;99.90
27795;DHT22;15176;50.844;4.412;2023-05-24T07:10:07;16.90;99.90
27795;DHT22;15176;50.844;4.412;2023-05-24T07:12:36;17.00;99.90
27795;DHT22;15176;50.844;4.412;2023-05-24T07:15:04;17.10;99.90
27795;DHT22;15176;50.844;4.412;2023-05-24T07:17:31;17.50;99.90
27795;DHT22;15176;50.844;4.412;2023-05-24T07:19:58;17.70;99.90
27795;DHT22;15176;50.844;4.412;2023-05-24T07:22:24;17.60;99.90
27795;DHT22;15176;50.844;4.412;2023-05-24T07:24:51;17.80;99.90
27795;DHT22;15176;50.844;4.412;2023-05-24T07:27:17;17.80;99.90
27795;DHT22;15176;50.844;4.412;2023-05-24T07:29:43;18.00;99.90
27795;DHT22;15176;50.844;4.412;2023-05-24T07:32:10;18.10;99.90
27795;DHT22;15176;50.844;4.412;2023-05-24T07:34:36;17.90;99.90
27795;DHT22;15176;50.844;4.412;2023-05-24T07:37:04;18.10;99.90
27795;DHT22;15176;50.844;4.412;2023-05-24T07:39:30;18.10;99.60
27795;DHT22;15176;50.844;4.412;2023-05-24T07:41:55;17.90;99.90
27795;DHT22;15176;50.844;4.412;2023-05-24T07:44:21;17.70;99.90
27795;DHT22;15176;50.844;4.412;2023-05-24T07:46:48;17.70;99.90
27795;DHT22;15176;50.844;4.412;2023-05-24T07:49:14;17.50;99.90
27795;DHT22;15176;50.844;4.412;2023-05-24T07:51:39;17.80;99.90
27795;DHT22;15176;50.844;4.412;2023-05-24T07:54:05;18.10;99.90
27795;DHT22;15176;50.844;4.412;2023-05-24T07:56:32;18.00;99.50
27795;DHT22;15176;50.844;4.412;2023-05-24T07:58:58;18.10;99.10
27795;DHT22;15176;50.844;4.412;2023-05-24T08:01:31;18.20;98.70
27795;DHT22;15176;50.844;4.412;2023-05-24T08:04:02;17.90;98.70
27795;DHT22;15176;50.844;4.412;2023-05-24T08:06:29;17.80;99.30
27795;DHT22;15176;50.844;4.412;2023-05-24T08:08:55;17.70;99.90
27795;DHT22;15176;50.844;4.412;2023-05-24T08:11:21;17.60;99.90
27795;DHT22;15176;50.844;4.412;2023-05-24T08:13:47;17.70;99.90
27795;DHT22;15176;50.844;4.412;2023-05-24T08:16:13;18.20;99.10
27795;DHT22;15176;50.844;4.412;2023-05-24T08:18:38;18.40;98.00
27795;DHT22;15176;50.844;4.412;2023-05-24T08:21:04;18.70;96.30
27795;DHT22;15176;50.844;4.412;2023-05-24T08:23:30;18.50;96.20
27795;DHT22;15176;50.844;4.412;2023-05-24T08:25:56;18.70;96.40
27795;DHT22;15176;50.844;4.412;2023-05-24T08:28:23;18.60;95.40
27795;DHT22;15176;50.844;4.412;2023-05-24T08:30:48;18.90;94.20
27795;DHT22;15176;50.844;4.412;2023-05-24T08:33:14;19.10;94.20
27795;DHT22;15176;50.844;4.412;2023-05-24T08:35:40;19.40;93.00
27795;DHT22;15176;50.844;4.412;2023-05-24T08:38:06;19.40;94.70
27795;DHT22;15176;50.844;4.412;2023-05-24T08:40:32;19.70;92.00
27795;DHT22;15176;50.844;4.412;2023-05-24T08:42:59;19.90;90.50
27795;DHT22;15176;50.844;4.412;2023-05-24T08:45:28;20.00;90.80
27795;DHT22;15176;50.844;4.412;2023-05-24T08:47:55;20.50;88.20
27795;DHT22;15176;50.844;4.412;2023-05-24T08:50:21;20.30;90.10
27795;DHT22;15176;50.844;4.412;2023-05-24T08:52:47;20.50;89.70
27795;DHT22;15176;50.844;4.412;2023-05-24T08:55:17;20.30;88.00
27795;DHT22;15176;50.844;4.412;2023-05-24T08:57:44;20.20;84.50
27795;DHT22;15176;50.844;4.412;2023-05-24T09:00:11;20.20;85.20
27795;DHT22;15176;50.844;4.412;2023-05-24T09:02:41;20.20;83.30
27795;DHT22;15176;50.844;4.412;2023-05-24T09:05:12;19.90;85.20
27795;DHT22;15176;50.844;4.412;2023-05-24T09:07:42;20.10;86.60
27795;DHT22;15176;50.844;4.412;2023-05-24T09:10:08;20.10;89.50
27795;DHT22;15176;50.844;4.412;2023-05-24T09:12:36;20.40;86.80
27795;DHT22;15176;50.844;4.412;2023-05-24T09:15:03;20.60;88.10
27795;DHT22;15176;50.844;4.412;2023-05-24T09:17:30;20.70;85.40
27795;DHT22;15176;50.844;4.412;2023-05-24T09:19:57;21.00;82.10
27795;DHT22;15176;50.844;4.412;2023-05-24T09:22:26;21.10;80.40
27795;DHT22;15176;50.844;4.412;2023-05-24T09:24:57;21.60;80.10
27795;DHT22;15176;50.844;4.412;2023-05-24T09:27:25;21.80;80.60
27795;DHT22;15176;50.844;4.412;2023-05-24T09:29:50;22.10;75.50
27795;DHT22;15176;50.844;4.412;2023-05-24T09:32:18;22.10;73.90
27795;DHT22;15176;50.844;4.412;2023-05-24T09:34:52;21.90;72.00
27795;DHT22;15176;50.844;4.412;2023-05-24T09:37:20;22.10;72.40
27795;DHT22;15176;50.844;4.412;2023-05-24T09:39:48;22.30;69.40
27795;DHT22;15176;50.844;4.412;2023-05-24T09:42:17;22.00;70.50
27795;DHT22;15176;50.844;4.412;2023-05-24T09:44:46;21.80;72.20
27795;DHT22;15176;50.844;4.412;2023-05-24T09:47:15;21.40;75.40
27795;DHT22;15176;50.844;4.412;2023-05-24T09:49:41;21.60;76.40
27795;DHT22;15176;50.844;4.412;2023-05-24T09:52:13;21.60;74.00
27795;DHT22;15176;50.844;4.412;2023-05-24T09:54:39;21.70;74.40
27795;DHT22;15176;50.844;4.412;2023-05-24T09:57:06;21.80;73.20
27795;DHT22;15176;50.844;4.412;2023-05-24T09:59:32;21.70;73.70
27795;DHT22;15176;50.844;4.412;2023-05-24T10:02:27;21.80;74.60
27795;DHT22;15176;50.844;4.412;2023-05-24T10:05:01;21.90;73.80
27795;DHT22;15176;50.844;4.412;2023-05-24T10:07:27;22.00;76.00
27795;DHT22;15176;50.844;4.412;2023-05-24T10:09:58;22.00;75.30
27795;DHT22;15176;50.844;4.412;2023-05-24T10:12:24;21.60;78.30
27795;DHT22;15176;50.844;4.412;2023-05-24T10:14:51;21.40;77.80
27795;DHT22;15176;50.844;4.412;2023-05-24T10:17:19;21.60;78.10
27795;DHT22;15176;50.844;4.412;2023-05-24T10:19:45;21.80;78.40
27795;DHT22;15176;50.844;4.412;2023-05-24T10:22:12;21.80;78.10
27795;DHT22;15176;50.844;4.412;2023-05-24T10:24:43;21.20;80.50
27795;DHT22;15176;50.844;4.412;2023-05-24T10:27:17;21.20;82.50
27795;DHT22;15176;50.844;4.412;2023-05-24T10:32:32;21.50;79.80
27795;DHT22;15176;50.844;4.412;2023-05-24T10:35:00;21.20;80.80
27795;DHT22;15176;50.844;4.412;2023-05-24T10:37:26;21.50;80.80
27795;DHT22;15176;50.844;4.412;2023-05-24T10:39:52;21.80;81.00
27795;DHT22;15176;50.844;4.412;2023-05-24T10:42:18;21.60;81.20
27795;DHT22;15176;50.844;4.412;2023-05-24T10:44:44;21.50;81.90
27795;DHT22;15176;50.844;4.412;2023-05-24T10:47:14;21.60;79.70
27795;DHT22;15176;50.844;4.412;2023-05-24T10:49:53;22.20;77.50
27795;DHT22;15176;50.844;4.412;2023-05-24T10:52:36;22.40;76.80
27795;DHT22;15176;50.844;4.412;2023-05-24T10:57:29;22.60;76.20
27795;DHT22;15176;50.844;4.412;2023-05-24T10:59:57;22.60;76.50
27795;DHT22;15176;50.844;4.412;2023-05-24T11:02:33;21.90;77.00
27795;DHT22;15176;50.844;4.412;2023-05-24T11:05:04;21.80;79.10
27795;DHT22;15176;50.844;4.412;2023-05-24T11:07:30;21.80;78.60
27795;DHT22;15176;50.844;4.412;2023-05-24T11:10:02;21.40;77.70
27795;DHT22;15176;50.844;4.412;2023-05-24T11:12:35;21.10;80.40
27795;DHT22;15176;50.844;4.412;2023-05-24T11:15:08;21.40;81.40
27795;DHT22;15176;50.844;4.412;2023-05-24T11:20:40;22.20;79.60
27795;DHT22;15176;50.844;4.412;2023-05-24T11:23:13;22.10;76.50
27795;DHT22;15176;50.844;4.412;2023-05-24T11:25:39;22.00;78.10
27795;DHT22;15176;50.844;4.412;2023-05-24T11:28:09;22.50;76.00
27795;DHT22;15176;50.844;4.412;2023-05-24T11:30:46;22.00;77.70
27795;DHT22;15176;50.844;4.412;2023-05-24T11:33:19;22.20;76.90
27795;DHT22;15176;50.844;4.412;2023-05-24T11:35:47;22.10;74.30
27795;DHT22;15176;50.844;4.412;2023-05-24T11:38:15;22.00;76.00
27795;DHT22;15176;50.844;4.412;2023-05-24T11:40:42;22.10;77.10
27795;DHT22;15176;50.844;4.412;2023-05-24T11:43:35;22.20;75.30
27795;DHT22;15176;50.844;4.412;2023-05-24T11:46:01;21.90;76.50
27795;DHT22;15176;50.844;4.412;2023-05-24T11:48:27;22.20;76.60
27795;DHT22;15176;50.844;4.412;2023-05-24T11:50:54;22.70;74.80
27795;DHT22;15176;50.844;4.412;2023-05-24T11:53:20;23.00;72.80
27795;DHT22;15176;50.844;4.412;2023-05-24T11:55:46;23.10;73.90
27795;DHT22;15176;50.844;4.412;2023-05-24T12:00:42;23.00;71.10
27795;DHT22;15176;50.844;4.412;2023-05-24T12:03:08;23.30;70.30
27795;DHT22;15176;50.844;4.412;2023-05-24T12:05:35;23.50;69.50
27795;DHT22;15176;50.844;4.412;2023-05-24T12:08:07;23.80;69.50
27795;DHT22;15176;50.844;4.412;2023-05-24T12:10:35;23.80;68.50
27795;DHT22;15176;50.844;4.412;2023-05-24T12:13:05;23.60;68.30
27795;DHT22;15176;50.844;4.412;2023-05-24T12:15:33;23.70;68.80
27795;DHT22;15176;50.844;4.412;2023-05-24T12:17:59;24.10;67.90
27795;DHT22;15176;50.844;4.412;2023-05-24T12:20:28;23.90;67.80
27795;DHT22;15176;50.844;4.412;2023-05-24T12:22:55;23.80;66.40
27795;DHT22;15176;50.844;4.412;2023-05-24T12:25:22;23.60;67.90
27795;DHT22;15176;50.844;4.412;2023-05-24T12:27:54;23.50;67.60
27795;DHT22;15176;50.844;4.412;2023-05-24T12:30:25;23.00;67.90
27795;DHT22;15176;50.844;4.412;2023-05-24T12:32:51;22.70;70.40
27795;DHT22;15176;50.844;4.412;2023-05-24T12:35:20;22.80;70.10
27795;DHT22;15176;50.844;4.412;2023-05-24T12:37:46;23.00;69.10
27795;DHT22;15176;50.844;4.412;2023-05-24T12:40:20;23.20;68.10
27795;DHT22;15176;50.844;4.412;2023-05-24T12:42:53;22.90;68.40
27795;DHT22;15176;50.844;4.412;2023-05-24T12:45:21;23.00;69.00
27795;DHT22;15176;50.844;4.412;2023-05-24T12:47:50;23.00;68.10
27795;DHT22;15176;50.844;4.412;2023-05-24T12:50:21;22.90;68.90
27795;DHT22;15176;50.844;4.412;2023-05-24T12:52:48;22.40;69.50
27795;DHT22;15176;50.844;4.412;2023-05-24T12:55:17;22.30;70.80
27795;DHT22;15176;50.844;4.412;2023-05-24T12:57:44;22.50;69.50
27795;DHT22;15176;50.844;4.412;2023-05-24T13:00:18;22.20;68.70
27795;DHT22;15176;50.844;4.412;2023-05-24T13:02:43;22.20;69.20
27795;DHT22;15176;50.844;4.412;2023-05-24T13:05:09;21.40;71.20
27795;DHT22;15176;50.844;4.412;2023-05-24T13:07:36;21.40;72.90
27795;DHT22;15176;50.844;4.412;2023-05-24T13:10:02;21.50;74.50
27795;DHT22;15176;50.844;4.412;2023-05-24T13:12:28;21.50;73.20
27795;DHT22;15176;50.844;4.412;2023-05-24T13:14:55;21.80;74.10
27795;DHT22;15176;50.844;4.412;2023-05-24T13:17:20;21.70;74.10
27795;DHT22;15176;50.844;4.412;2023-05-24T13:19:46;21.50;72.30
27795;DHT22;15176;50.844;4.412;2023-05-24T13:22:12;21.40;73.30
27795;DHT22;15176;50.844;4.412;2023-05-24T13:24:40;21.30;74.10
27795;DHT22;15176;50.844;4.412;2023-05-24T13:27:06;21.20;75.60
27795;DHT22;15176;50.844;4.412;2023-05-24T13:29:32;21.30;75.10
27795;DHT22;15176;50.844;4.412;2023-05-24T13:31:58;21.40;74.20
27795;DHT22;15176;50.844;4.412;2023-05-24T13:34:23;20.90;75.00
27795;DHT22;15176;50.844;4.412;2023-05-24T13:36:50;20.90;76.80
27795;DHT22;15176;50.844;4.412;2023-05-24T13:39:17;21.10;77.30
27795;DHT22;15176;50.844;4.412;2023-05-24T13:41:44;21.40;76.20
27795;DHT22;15176;50.844;4.412;2023-05-24T13:44:11;21.40;75.80
27795;DHT22;15176;50.844;4.412;2023-05-24T13:46:37;21.20;75.80
27795;DHT22;15176;50.844;4.412;2023-05-24T13:49:04;21.20;75.70
27795;DHT22;15176;50.844;4.412;2023-05-24T13:51:30;21.10;74.60
27795;DHT22;15176;50.844;4.412;2023-05-24T13:53:55;21.20;75.90
27795;DHT22;15176;50.844;4.412;2023-05-24T13:56:21;21.20;75.20
27795;DHT22;15176;50.844;4.412;2023-05-24T13:58:48;21.30;74.40
27795;DHT22;15176;50.844;4.412;2023-05-24T14:01:14;21.40;73.70
27795;DHT22;15176;50.844;4.412;2023-05-24T14:03:40;21.40;74.50
27795;DHT22;15176;50.844;4.412;2023-05-24T14:06:06;21.30;75.10
27795;DHT22;15176;50.844;4.412;2023-05-24T14:08:33;21.20;74.10
27795;DHT22;15176;50.844;4.412;2023-05-24T14:10:58;20.90;75.70
27795;DHT22;15176;50.844;4.412;2023-05-24T14:13:24;20.80;75.20
27795;DHT22;15176;50.844;4.412;2023-05-24T14:15:51;21.00;75.20
27795;DHT22;15176;50.844;4.412;2023-05-24T14:18:16;21.10;74.00
27795;DHT22;15176;50.844;4.412;2023-05-24T14:20:42;20.90;75.30
27795;DHT22;15176;50.844;4.412;2023-05-24T14:23:08;20.70;77.00
27795;DHT22;15176;50.844;4.412;2023-05-24T14:25:34;20.90;76.80
27795;DHT22;15176;50.844;4.412;2023-05-24T14:28:00;20.80;77.10
27795;DHT22;15176;50.844;4.412;2023-05-24T14:30:29;20.60;77.70
27795;DHT22;15176;50.844;4.412;2023-05-24T14:32:57;20.60;77.40
27795;DHT22;15176;50.844;4.412;2023-05-24T14:35:23;20.40;78.50
27795;DHT22;15176;50.844;4.412;2023-05-24T14:37:48;20.60;77.60
27795;DHT22;15176;50.844;4.412;2023-05-24T14:40:14;20.30;78.10
27795;DHT22;15176;50.844;4.412;2023-05-24T14:42:41;20.60;78.10
27795;DHT22;15176;50.844;4.412;2023-05-24T14:45:07;20.60;77.60
27795;DHT22;15176;50.844;4.412;2023-05-24T14:47:35;20.90;76.60
27795;DHT22;15176;50.844;4.412;2023-05-24T14:50:01;21.00;77.20
27795;DHT22;15176;50.844;4.412;2023-05-24T14:52:26;20.70;78.50
27795;DHT22;15176;50.844;4.412;2023-05-24T14:54:52;20.90;77.80
27795;DHT22;15176;50.844;4.412;2023-05-24T14:57:18;20.90;77.60
27795;DHT22;15176;50.844;4.412;2023-05-24T14:59:44;20.70;77.60
27795;DHT22;15176;50.844;4.412;2023-05-24T15:02:09;20.80;77.30
27795;DHT22;15176;50.844;4.412;2023-05-24T15:04:35;20.90;76.30
27795;DHT22;15176;50.844;4.412;2023-05-24T15:07:01;20.90;77.20
27795;DHT22;15176;50.844;4.412;2023-05-24T15:09:27;20.90;77.10
27795;DHT22;15176;50.844;4.412;2023-05-24T15:11:53;20.60;78.00
27795;DHT22;15176;50.844;4.412;2023-05-24T15:14:19;20.60;78.40
27795;DHT22;15176;50.844;4.412;2023-05-24T15:16:46;20.60;78.70
27795;DHT22;15176;50.844;4.412;2023-05-24T15:19:13;20.60;78.80
27795;DHT22;15176;50.844;4.412;2023-05-24T15:21:39;20.40;79.30
27795;DHT22;15176;50.844;4.412;2023-05-24T15:24:04;20.50;79.80
27795;DHT22;15176;50.844;4.412;2023-05-24T15:26:30;20.30;79.50
27795;DHT22;15176;50.844;4.412;2023-05-24T15:28:56;20.30;80.30
27795;DHT22;15176;50.844;4.412;2023-05-24T15:31:22;20.60;79.70
27795;DHT22;15176;50.844;4.412;2023-05-24T15:33:48;20.40;80.60
27795;DHT22;15176;50.844;4.412;2023-05-24T15:36:13;20.20;81.40
27795;DHT22;15176;50.844;4.412;2023-05-24T15:38:41;20.20;81.10
27795;DHT22;15176;50.844;4.412;2023-05-24T15:41:07;20.00;81.70
27795;DHT22;15176;50.844;4.412;2023-05-24T15:43:33;20.30;81.50
27795;DHT22;15176;50.844;4.412;2023-05-24T15:45:59;20.50;81.80
27795;DHT22;15176;50.844;4.412;2023-05-24T15:48:24;20.60;80.60
27795;DHT22;15176;50.844;4.412;2023-05-24T15:50:50;20.40;81.40
27795;DHT22;15176;50.844;4.412;2023-05-24T15:53:16;20.30;82.20
27795;DHT22;15176;50.844;4.412;2023-05-24T15:55:42;20.60;81.80